sensor_id;sensor_type;location;lat;lon;timestamp;P1;durP1;ratioP1;P2;durP2;ratioP2
16436;SDS011;8328;52.206;21.006;2022-12-29T00:02:18;9.53;;;5.40;;
16436;SDS011;8328;52.206;21.006;2022-12-29T00:04:44;9.80;;;5.70;;
16436;SDS011;8328;52.206;21.006;2022-12-29T00:07:10;11.17;;;5.73;;
16436;SDS011;8328;52.206;21.006;2022-12-29T00:09:36;8.57;;;5.57;;
16436;SDS011;8328;52.206;21.006;2022-12-29T00:12:02;9.97;;;6.03;;
16436;SDS011;8328;52.206;21.006;2022-12-29T00:14:30;7.17;;;5.30;;
16436;SDS011;8328;52.206;21.006;2022-12-29T00:17:15;9.50;;;5.93;;
16436;SDS011;8328;52.206;21.006;2022-12-29T00:19:40;10.70;;;6.60;;
16436;SDS011;8328;52.206;21.006;2022-12-29T00:22:24;11.20;;;6.03;;
16436;SDS011;8328;52.206;21.006;2022-12-29T00:25:10;10.10;;;5.97;;
16436;SDS011;8328;52.206;21.006;2022-12-29T00:27:55;9.17;;;5.37;;
16436;SDS011;8328;52.206;21.006;2022-12-29T00:30:40;9.23;;;5.10;;
16436;SDS011;8328;52.206;21.006;2022-12-29T00:33:28;8.23;;;4.93;;
16436;SDS011;8328;52.206;21.006;2022-12-29T00:38:53;8.33;;;5.47;;
16436;SDS011;8328;52.206;21.006;2022-12-29T00:41:41;8.93;;;5.43;;
16436;SDS011;8328;52.206;21.006;2022-12-29T00:44:25;9.07;;;4.60;;
16436;SDS011;8328;52.206;21.006;2022-12-29T00:46:51;9.80;;;5.53;;
16436;SDS011;8328;52.206;21.006;2022-12-29T00:49:17;8.63;;;5.83;;
16436;SDS011;8328;52.206;21.006;2022-12-29T00:51:59;8.67;;;5.27;;
16436;SDS011;8328;52.206;21.006;2022-12-29T00:54:32;7.83;;;4.67;;
16436;SDS011;8328;52.206;21.006;2022-12-29T00:56:59;7.83;;;4.97;;
16436;SDS011;8328;52.206;21.006;2022-12-29T00:59:25;9.00;;;5.17;;
16436;SDS011;8328;52.206;21.006;2022-12-29T01:01:51;7.57;;;4.93;;
16436;SDS011;8328;52.206;21.006;2022-12-29T01:04:21;8.20;;;4.77;;
16436;SDS011;8328;52.206;21.006;2022-12-29T01:06:49;10.67;;;5.53;;
16436;SDS011;8328;52.206;21.006;2022-12-29T01:09:15;7.33;;;5.10;;
16436;SDS011;8328;52.206;21.006;2022-12-29T01:12:00;6.83;;;4.53;;
16436;SDS011;8328;52.206;21.006;2022-12-29T01:14:27;9.63;;;5.03;;
16436;SDS011;8328;52.206;21.006;2022-12-29T01:16:53;7.73;;;5.20;;
16436;SDS011;8328;52.206;21.006;2022-12-29T01:19:20;7.63;;;4.83;;
16436;SDS011;8328;52.206;21.006;2022-12-29T01:21:46;8.73;;;5.10;;
16436;SDS011;8328;52.206;21.006;2022-12-29T01:24:13;9.37;;;4.73;;
16436;SDS011;8328;52.206;21.006;2022-12-29T01:26:40;7.53;;;4.87;;
16436;SDS011;8328;52.206;21.006;2022-12-29T01:29:06;6.60;;;4.70;;
16436;SDS011;8328;52.206;21.006;2022-12-29T01:31:33;8.03;;;4.80;;
16436;SDS011;8328;52.206;21.006;2022-12-29T01:33:58;7.57;;;4.70;;
16436;SDS011;8328;52.206;21.006;2022-12-29T01:36:24;5.90;;;4.00;;
16436;SDS011;8328;52.206;21.006;2022-12-29T01:38:50;7.37;;;4.73;;
16436;SDS011;8328;52.206;21.006;2022-12-29T01:41:16;7.13;;;4.13;;
16436;SDS011;8328;52.206;21.006;2022-12-29T01:43:46;7.50;;;4.43;;
16436;SDS011;8328;52.206;21.006;2022-12-29T01:51:53;7.27;;;4.67;;
16436;SDS011;8328;52.206;21.006;2022-12-29T01:54:33;6.00;;;4.33;;
16436;SDS011;8328;52.206;21.006;2022-12-29T01:57:08;7.67;;;4.40;;
16436;SDS011;8328;52.206;21.006;2022-12-29T01:59:41;6.67;;;4.37;;
16436;SDS011;8328;52.206;21.006;2022-12-29T02:02:13;6.73;;;4.43;;
16436;SDS011;8328;52.206;21.006;2022-12-29T02:04:40;6.47;;;4.07;;
16436;SDS011;8328;52.206;21.006;2022-12-29T02:07:16;8.30;;;4.30;;
16436;SDS011;8328;52.206;21.006;2022-12-29T02:09:46;6.83;;;3.90;;
16436;SDS011;8328;52.206;21.006;2022-12-29T02:12:13;8.20;;;4.50;;
16436;SDS011;8328;52.206;21.006;2022-12-29T02:14:40;7.13;;;4.30;;
16436;SDS011;8328;52.206;21.006;2022-12-29T02:22:27;6.83;;;4.03;;
16436;SDS011;8328;52.206;21.006;2022-12-29T02:28:01;6.57;;;3.83;;
16436;SDS011;8328;52.206;21.006;2022-12-29T02:36:15;5.73;;;3.90;;
16436;SDS011;8328;52.206;21.006;2022-12-29T02:41:19;7.30;;;4.17;;
16436;SDS011;8328;52.206;21.006;2022-12-29T02:46:35;5.63;;;3.93;;
16436;SDS011;8328;52.206;21.006;2022-12-29T02:49:25;6.23;;;4.17;;
16436;SDS011;8328;52.206;21.006;2022-12-29T02:54:39;6.53;;;3.90;;
16436;SDS011;8328;52.206;21.006;2022-12-29T02:57:11;7.63;;;4.17;;
16436;SDS011;8328;52.206;21.006;2022-12-29T02:59:40;6.37;;;4.20;;
16436;SDS011;8328;52.206;21.006;2022-12-29T03:02:21;6.77;;;3.80;;
16436;SDS011;8328;52.206;21.006;2022-12-29T03:09:56;5.47;;;3.60;;
16436;SDS011;8328;52.206;21.006;2022-12-29T03:15:51;7.20;;;4.30;;
16436;SDS011;8328;52.206;21.006;2022-12-29T03:18:56;7.23;;;3.83;;
16436;SDS011;8328;52.206;21.006;2022-12-29T03:21:43;6.27;;;4.20;;
16436;SDS011;8328;52.206;21.006;2022-12-29T03:24:31;9.53;;;4.10;;
16436;SDS011;8328;52.206;21.006;2022-12-29T03:27:03;7.20;;;3.47;;
16436;SDS011;8328;52.206;21.006;2022-12-29T03:29:33;5.37;;;3.40;;
16436;SDS011;8328;52.206;21.006;2022-12-29T03:32:04;6.20;;;3.97;;
16436;SDS011;8328;52.206;21.006;2022-12-29T03:34:31;6.47;;;3.77;;
16436;SDS011;8328;52.206;21.006;2022-12-29T03:37:06;8.80;;;4.07;;
16436;SDS011;8328;52.206;21.006;2022-12-29T03:39:38;7.23;;;3.70;;
16436;SDS011;8328;52.206;21.006;2022-12-29T03:42:05;5.53;;;3.63;;
16436;SDS011;8328;52.206;21.006;2022-12-29T03:44:36;5.93;;;3.83;;
16436;SDS011;8328;52.206;21.006;2022-12-29T03:47:04;6.33;;;4.10;;
16436;SDS011;8328;52.206;21.006;2022-12-29T03:49:31;5.60;;;3.90;;
16436;SDS011;8328;52.206;21.006;2022-12-29T03:51:56;6.07;;;4.30;;
16436;SDS011;8328;52.206;21.006;2022-12-29T03:54:22;5.33;;;3.80;;
16436;SDS011;8328;52.206;21.006;2022-12-29T03:56:49;5.77;;;4.00;;
16436;SDS011;8328;52.206;21.006;2022-12-29T03:59:14;5.80;;;4.07;;
16436;SDS011;8328;52.206;21.006;2022-12-29T04:01:40;10.77;;;3.97;;
16436;SDS011;8328;52.206;21.006;2022-12-29T04:04:06;5.63;;;3.63;;
16436;SDS011;8328;52.206;21.006;2022-12-29T04:06:32;7.40;;;3.90;;
16436;SDS011;8328;52.206;21.006;2022-12-29T04:08:58;6.83;;;3.93;;
16436;SDS011;8328;52.206;21.006;2022-12-29T04:11:24;7.93;;;4.23;;
16436;SDS011;8328;52.206;21.006;2022-12-29T04:13:49;7.03;;;4.10;;
16436;SDS011;8328;52.206;21.006;2022-12-29T04:16:15;7.17;;;4.40;;
16436;SDS011;8328;52.206;21.006;2022-12-29T04:18:41;6.50;;;4.20;;
16436;SDS011;8328;52.206;21.006;2022-12-29T04:21:07;6.23;;;4.40;;
16436;SDS011;8328;52.206;21.006;2022-12-29T04:23:33;7.07;;;4.10;;
16436;SDS011;8328;52.206;21.006;2022-12-29T04:26:02;6.63;;;4.50;;
16436;SDS011;8328;52.206;21.006;2022-12-29T04:28:28;7.67;;;4.60;;
16436;SDS011;8328;52.206;21.006;2022-12-29T04:30:55;7.20;;;4.43;;
16436;SDS011;8328;52.206;21.006;2022-12-29T04:33:21;9.97;;;5.17;;
16436;SDS011;8328;52.206;21.006;2022-12-29T04:35:47;7.57;;;4.80;;
16436;SDS011;8328;52.206;21.006;2022-12-29T04:38:14;6.90;;;4.77;;
16436;SDS011;8328;52.206;21.006;2022-12-29T04:40:41;7.83;;;5.07;;
16436;SDS011;8328;52.206;21.006;2022-12-29T04:43:08;8.13;;;5.30;;
16436;SDS011;8328;52.206;21.006;2022-12-29T04:45:34;10.10;;;5.53;;
16436;SDS011;8328;52.206;21.006;2022-12-29T04:48:00;8.90;;;5.00;;
16436;SDS011;8328;52.206;21.006;2022-12-29T04:50:26;9.83;;;5.10;;
16436;SDS011;8328;52.206;21.006;2022-12-29T04:52:51;10.13;;;5.43;;
16436;SDS011;8328;52.206;21.006;2022-12-29T04:55:17;8.13;;;5.30;;
16436;SDS011;8328;52.206;21.006;2022-12-29T04:57:43;10.43;;;5.23;;
16436;SDS011;8328;52.206;21.006;2022-12-29T05:00:09;8.93;;;5.30;;
16436;SDS011;8328;52.206;21.006;2022-12-29T05:02:36;8.20;;;5.30;;
16436;SDS011;8328;52.206;21.006;2022-12-29T05:05:02;10.10;;;5.73;;
16436;SDS011;8328;52.206;21.006;2022-12-29T05:07:28;9.50;;;5.97;;
16436;SDS011;8328;52.206;21.006;2022-12-29T05:09:54;7.37;;;5.10;;
16436;SDS011;8328;52.206;21.006;2022-12-29T05:12:20;9.53;;;5.77;;
16436;SDS011;8328;52.206;21.006;2022-12-29T05:14:45;10.10;;;6.13;;
16436;SDS011;8328;52.206;21.006;2022-12-29T05:17:12;11.77;;;6.10;;
16436;SDS011;8328;52.206;21.006;2022-12-29T05:19:37;10.90;;;5.97;;
16436;SDS011;8328;52.206;21.006;2022-12-29T05:22:03;9.60;;;5.67;;
16436;SDS011;8328;52.206;21.006;2022-12-29T05:24:29;10.27;;;6.00;;
16436;SDS011;8328;52.206;21.006;2022-12-29T05:26:55;10.13;;;6.23;;
16436;SDS011;8328;52.206;21.006;2022-12-29T05:29:20;10.90;;;6.40;;
16436;SDS011;8328;52.206;21.006;2022-12-29T05:31:46;11.70;;;6.30;;
16436;SDS011;8328;52.206;21.006;2022-12-29T05:34:12;9.20;;;6.07;;
16436;SDS011;8328;52.206;21.006;2022-12-29T05:36:38;10.07;;;6.13;;
16436;SDS011;8328;52.206;21.006;2022-12-29T05:39:04;10.40;;;6.50;;
16436;SDS011;8328;52.206;21.006;2022-12-29T05:41:32;10.00;;;5.87;;
16436;SDS011;8328;52.206;21.006;2022-12-29T05:43:58;10.37;;;6.20;;
16436;SDS011;8328;52.206;21.006;2022-12-29T05:46:24;11.60;;;5.87;;
16436;SDS011;8328;52.206;21.006;2022-12-29T05:48:50;9.70;;;5.90;;
16436;SDS011;8328;52.206;21.006;2022-12-29T05:51:17;10.23;;;5.80;;
16436;SDS011;8328;52.206;21.006;2022-12-29T05:53:43;11.00;;;6.07;;
16436;SDS011;8328;52.206;21.006;2022-12-29T05:56:08;11.17;;;5.77;;
16436;SDS011;8328;52.206;21.006;2022-12-29T05:58:34;9.33;;;5.67;;
16436;SDS011;8328;52.206;21.006;2022-12-29T06:01:00;9.73;;;5.87;;
16436;SDS011;8328;52.206;21.006;2022-12-29T06:03:26;8.27;;;5.27;;
16436;SDS011;8328;52.206;21.006;2022-12-29T06:05:51;9.40;;;6.13;;
16436;SDS011;8328;52.206;21.006;2022-12-29T06:08:17;12.33;;;6.47;;
16436;SDS011;8328;52.206;21.006;2022-12-29T06:10:43;10.00;;;5.77;;
16436;SDS011;8328;52.206;21.006;2022-12-29T06:13:09;11.03;;;5.30;;
16436;SDS011;8328;52.206;21.006;2022-12-29T06:15:35;9.17;;;6.00;;
16436;SDS011;8328;52.206;21.006;2022-12-29T06:18:01;10.43;;;5.40;;
16436;SDS011;8328;52.206;21.006;2022-12-29T06:20:27;8.90;;;5.90;;
16436;SDS011;8328;52.206;21.006;2022-12-29T06:22:53;9.67;;;5.90;;
16436;SDS011;8328;52.206;21.006;2022-12-29T06:25:19;8.23;;;5.00;;
16436;SDS011;8328;52.206;21.006;2022-12-29T06:27:45;8.93;;;5.47;;
16436;SDS011;8328;52.206;21.006;2022-12-29T06:30:11;9.73;;;5.43;;
16436;SDS011;8328;52.206;21.006;2022-12-29T06:32:38;10.37;;;5.63;;
16436;SDS011;8328;52.206;21.006;2022-12-29T06:35:04;6.90;;;4.87;;
16436;SDS011;8328;52.206;21.006;2022-12-29T06:37:33;7.90;;;5.13;;
16436;SDS011;8328;52.206;21.006;2022-12-29T06:39:59;8.33;;;5.37;;
16436;SDS011;8328;52.206;21.006;2022-12-29T06:42:24;9.90;;;5.50;;
16436;SDS011;8328;52.206;21.006;2022-12-29T06:44:52;9.23;;;5.70;;
16436;SDS011;8328;52.206;21.006;2022-12-29T06:47:18;9.17;;;5.33;;
16436;SDS011;8328;52.206;21.006;2022-12-29T06:49:44;11.00;;;5.67;;
16436;SDS011;8328;52.206;21.006;2022-12-29T06:52:10;8.83;;;5.20;;
16436;SDS011;8328;52.206;21.006;2022-12-29T06:54:36;9.57;;;5.17;;
16436;SDS011;8328;52.206;21.006;2022-12-29T06:57:02;9.83;;;5.93;;
16436;SDS011;8328;52.206;21.006;2022-12-29T06:59:27;11.10;;;6.10;;
16436;SDS011;8328;52.206;21.006;2022-12-29T07:01:54;10.20;;;6.27;;
16436;SDS011;8328;52.206;21.006;2022-12-29T07:04:20;9.40;;;5.60;;
16436;SDS011;8328;52.206;21.006;2022-12-29T07:06:45;10.13;;;5.77;;
16436;SDS011;8328;52.206;21.006;2022-12-29T07:09:11;10.37;;;6.20;;
16436;SDS011;8328;52.206;21.006;2022-12-29T07:11:37;11.23;;;5.47;;
16436;SDS011;8328;52.206;21.006;2022-12-29T07:14:03;10.93;;;5.90;;
16436;SDS011;8328;52.206;21.006;2022-12-29T07:16:31;8.57;;;5.27;;
16436;SDS011;8328;52.206;21.006;2022-12-29T07:18:57;12.10;;;6.30;;
16436;SDS011;8328;52.206;21.006;2022-12-29T07:21:24;11.83;;;5.13;;
16436;SDS011;8328;52.206;21.006;2022-12-29T07:23:50;8.33;;;5.13;;
16436;SDS011;8328;52.206;21.006;2022-12-29T07:26:16;10.30;;;4.90;;
16436;SDS011;8328;52.206;21.006;2022-12-29T07:28:44;7.93;;;5.00;;
16436;SDS011;8328;52.206;21.006;2022-12-29T07:31:14;9.40;;;5.13;;
16436;SDS011;8328;52.206;21.006;2022-12-29T07:33:42;10.00;;;5.13;;
16436;SDS011;8328;52.206;21.006;2022-12-29T07:36:08;7.23;;;4.57;;
16436;SDS011;8328;52.206;21.006;2022-12-29T07:38:35;8.00;;;4.80;;
16436;SDS011;8328;52.206;21.006;2022-12-29T07:41:01;8.67;;;5.53;;
16436;SDS011;8328;52.206;21.006;2022-12-29T07:43:27;7.53;;;4.67;;
16436;SDS011;8328;52.206;21.006;2022-12-29T07:45:53;8.13;;;5.00;;
16436;SDS011;8328;52.206;21.006;2022-12-29T07:48:19;8.17;;;4.80;;
16436;SDS011;8328;52.206;21.006;2022-12-29T07:50:45;9.50;;;5.20;;
16436;SDS011;8328;52.206;21.006;2022-12-29T07:53:10;8.77;;;5.87;;
16436;SDS011;8328;52.206;21.006;2022-12-29T07:55:36;10.17;;;5.13;;
16436;SDS011;8328;52.206;21.006;2022-12-29T07:58:02;10.53;;;5.90;;
16436;SDS011;8328;52.206;21.006;2022-12-29T08:00:28;7.20;;;5.30;;
16436;SDS011;8328;52.206;21.006;2022-12-29T08:02:54;8.43;;;5.93;;
16436;SDS011;8328;52.206;21.006;2022-12-29T08:05:20;10.20;;;5.50;;
16436;SDS011;8328;52.206;21.006;2022-12-29T08:07:46;8.93;;;5.60;;
16436;SDS011;8328;52.206;21.006;2022-12-29T08:10:12;7.90;;;5.07;;
16436;SDS011;8328;52.206;21.006;2022-12-29T08:12:39;8.23;;;5.03;;
16436;SDS011;8328;52.206;21.006;2022-12-29T08:15:06;6.50;;;4.40;;
16436;SDS011;8328;52.206;21.006;2022-12-29T08:17:33;8.50;;;5.03;;
16436;SDS011;8328;52.206;21.006;2022-12-29T08:19:59;7.63;;;4.80;;
16436;SDS011;8328;52.206;21.006;2022-12-29T08:22:25;9.07;;;5.90;;
16436;SDS011;8328;52.206;21.006;2022-12-29T08:24:51;7.37;;;4.93;;
16436;SDS011;8328;52.206;21.006;2022-12-29T08:27:17;12.43;;;5.27;;
16436;SDS011;8328;52.206;21.006;2022-12-29T08:29:43;9.77;;;6.03;;
16436;SDS011;8328;52.206;21.006;2022-12-29T08:32:09;10.90;;;6.23;;
16436;SDS011;8328;52.206;21.006;2022-12-29T08:34:35;6.80;;;4.27;;
16436;SDS011;8328;52.206;21.006;2022-12-29T08:37:01;6.20;;;4.23;;
16436;SDS011;8328;52.206;21.006;2022-12-29T08:39:30;7.40;;;4.40;;
16436;SDS011;8328;52.206;21.006;2022-12-29T08:41:55;7.03;;;4.63;;
16436;SDS011;8328;52.206;21.006;2022-12-29T08:44:21;7.23;;;4.37;;
16436;SDS011;8328;52.206;21.006;2022-12-29T08:46:47;7.77;;;4.50;;
16436;SDS011;8328;52.206;21.006;2022-12-29T08:49:13;7.17;;;4.80;;
16436;SDS011;8328;52.206;21.006;2022-12-29T08:51:39;8.63;;;4.67;;
16436;SDS011;8328;52.206;21.006;2022-12-29T08:54:04;8.30;;;4.57;;
16436;SDS011;8328;52.206;21.006;2022-12-29T08:56:30;7.43;;;4.87;;
16436;SDS011;8328;52.206;21.006;2022-12-29T08:58:57;7.20;;;4.30;;
16436;SDS011;8328;52.206;21.006;2022-12-29T09:01:23;6.50;;;4.30;;
16436;SDS011;8328;52.206;21.006;2022-12-29T09:03:49;7.50;;;4.30;;
16436;SDS011;8328;52.206;21.006;2022-12-29T09:06:15;6.57;;;4.30;;
16436;SDS011;8328;52.206;21.006;2022-12-29T09:08:42;6.30;;;4.00;;
16436;SDS011;8328;52.206;21.006;2022-12-29T09:11:10;8.57;;;4.23;;
16436;SDS011;8328;52.206;21.006;2022-12-29T09:13:38;8.97;;;4.50;;
16436;SDS011;8328;52.206;21.006;2022-12-29T09:16:04;6.37;;;4.00;;
16436;SDS011;8328;52.206;21.006;2022-12-29T09:18:30;7.47;;;4.63;;
16436;SDS011;8328;52.206;21.006;2022-12-29T09:20:57;8.87;;;4.50;;
16436;SDS011;8328;52.206;21.006;2022-12-29T09:23:24;7.17;;;4.30;;
16436;SDS011;8328;52.206;21.006;2022-12-29T09:25:50;6.33;;;4.23;;
16436;SDS011;8328;52.206;21.006;2022-12-29T09:28:15;6.50;;;4.27;;
16436;SDS011;8328;52.206;21.006;2022-12-29T09:30:41;6.00;;;4.33;;
16436;SDS011;8328;52.206;21.006;2022-12-29T09:33:07;4.83;;;3.73;;
16436;SDS011;8328;52.206;21.006;2022-12-29T09:35:34;6.30;;;3.83;;
16436;SDS011;8328;52.206;21.006;2022-12-29T09:38:01;6.80;;;3.90;;
16436;SDS011;8328;52.206;21.006;2022-12-29T09:40:28;7.40;;;4.40;;
16436;SDS011;8328;52.206;21.006;2022-12-29T09:43:05;10.77;;;4.30;;
16436;SDS011;8328;52.206;21.006;2022-12-29T09:45:40;5.47;;;3.57;;
16436;SDS011;8328;52.206;21.006;2022-12-29T09:48:21;8.67;;;4.43;;
16436;SDS011;8328;52.206;21.006;2022-12-29T09:50:56;6.63;;;3.90;;
16436;SDS011;8328;52.206;21.006;2022-12-29T09:53:27;6.13;;;4.17;;
16436;SDS011;8328;52.206;21.006;2022-12-29T09:56:05;6.53;;;4.33;;
16436;SDS011;8328;52.206;21.006;2022-12-29T10:04:06;6.33;;;3.80;;
16436;SDS011;8328;52.206;21.006;2022-12-29T10:06:46;5.70;;;3.87;;
16436;SDS011;8328;52.206;21.006;2022-12-29T10:18:09;8.30;;;4.10;;
16436;SDS011;8328;52.206;21.006;2022-12-29T10:20:38;6.57;;;4.50;;
16436;SDS011;8328;52.206;21.006;2022-12-29T10:25:44;6.77;;;4.67;;
16436;SDS011;8328;52.206;21.006;2022-12-29T10:28:21;6.63;;;4.53;;
16436;SDS011;8328;52.206;21.006;2022-12-29T10:30:59;9.47;;;6.77;;
16436;SDS011;8328;52.206;21.006;2022-12-29T10:33:34;6.73;;;4.27;;
16436;SDS011;8328;52.206;21.006;2022-12-29T10:36:04;5.97;;;3.97;;
16436;SDS011;8328;52.206;21.006;2022-12-29T10:39:07;7.10;;;4.47;;
16436;SDS011;8328;52.206;21.006;2022-12-29T10:42:09;9.30;;;4.00;;
16436;SDS011;8328;52.206;21.006;2022-12-29T10:44:56;6.73;;;4.47;;
16436;SDS011;8328;52.206;21.006;2022-12-29T10:47:25;8.03;;;4.43;;
16436;SDS011;8328;52.206;21.006;2022-12-29T10:49:54;6.80;;;4.30;;
16436;SDS011;8328;52.206;21.006;2022-12-29T10:52:23;7.23;;;4.60;;
16436;SDS011;8328;52.206;21.006;2022-12-29T10:54:54;7.13;;;3.83;;
16436;SDS011;8328;52.206;21.006;2022-12-29T10:57:26;7.80;;;4.63;;
16436;SDS011;8328;52.206;21.006;2022-12-29T10:59:57;7.10;;;4.50;;
16436;SDS011;8328;52.206;21.006;2022-12-29T11:02:43;6.33;;;4.33;;
16436;SDS011;8328;52.206;21.006;2022-12-29T11:07:50;7.23;;;4.17;;
16436;SDS011;8328;52.206;21.006;2022-12-29T11:10:29;8.13;;;4.40;;
16436;SDS011;8328;52.206;21.006;2022-12-29T11:13:10;12.47;;;5.17;;
16436;SDS011;8328;52.206;21.006;2022-12-29T11:15:42;7.40;;;4.40;;
16436;SDS011;8328;52.206;21.006;2022-12-29T11:20:45;6.80;;;4.57;;
16436;SDS011;8328;52.206;21.006;2022-12-29T11:23:22;6.83;;;4.60;;
16436;SDS011;8328;52.206;21.006;2022-12-29T11:28:30;7.27;;;4.83;;
16436;SDS011;8328;52.206;21.006;2022-12-29T11:31:02;7.50;;;4.67;;
16436;SDS011;8328;52.206;21.006;2022-12-29T11:33:29;7.30;;;4.30;;
16436;SDS011;8328;52.206;21.006;2022-12-29T11:36:10;6.47;;;4.57;;
16436;SDS011;8328;52.206;21.006;2022-12-29T11:38:37;6.83;;;4.70;;
16436;SDS011;8328;52.206;21.006;2022-12-29T11:41:06;8.73;;;5.10;;
16436;SDS011;8328;52.206;21.006;2022-12-29T11:43:37;8.27;;;5.00;;
16436;SDS011;8328;52.206;21.006;2022-12-29T11:46:05;7.60;;;4.73;;
16436;SDS011;8328;52.206;21.006;2022-12-29T11:48:38;7.53;;;4.80;;
16436;SDS011;8328;52.206;21.006;2022-12-29T11:51:05;9.53;;;5.57;;
16436;SDS011;8328;52.206;21.006;2022-12-29T11:53:39;8.80;;;5.37;;
16436;SDS011;8328;52.206;21.006;2022-12-29T11:56:14;10.10;;;5.10;;
16436;SDS011;8328;52.206;21.006;2022-12-29T11:58:42;8.63;;;4.60;;
16436;SDS011;8328;52.206;21.006;2022-12-29T12:01:13;7.33;;;5.30;;
16436;SDS011;8328;52.206;21.006;2022-12-29T12:04:04;7.43;;;4.87;;
16436;SDS011;8328;52.206;21.006;2022-12-29T12:06:43;9.63;;;4.77;;
16436;SDS011;8328;52.206;21.006;2022-12-29T12:12:15;10.17;;;6.90;;
16436;SDS011;8328;52.206;21.006;2022-12-29T12:14:56;7.73;;;5.07;;
16436;SDS011;8328;52.206;21.006;2022-12-29T12:22:50;8.57;;;5.83;;
16436;SDS011;8328;52.206;21.006;2022-12-29T12:25:37;8.83;;;4.90;;
16436;SDS011;8328;52.206;21.006;2022-12-29T12:28:13;5.83;;;4.30;;
16436;SDS011;8328;52.206;21.006;2022-12-29T12:31:18;7.27;;;4.67;;
16436;SDS011;8328;52.206;21.006;2022-12-29T12:33:57;7.73;;;4.93;;
16436;SDS011;8328;52.206;21.006;2022-12-29T12:36:44;8.07;;;4.37;;
16436;SDS011;8328;52.206;21.006;2022-12-29T12:42:33;8.63;;;4.70;;
16436;SDS011;8328;52.206;21.006;2022-12-29T12:45:26;7.10;;;4.63;;
16436;SDS011;8328;52.206;21.006;2022-12-29T12:58:58;8.70;;;4.70;;
16436;SDS011;8328;52.206;21.006;2022-12-29T13:01:37;6.33;;;4.40;;
16436;SDS011;8328;52.206;21.006;2022-12-29T13:15:12;7.77;;;4.50;;
16436;SDS011;8328;52.206;21.006;2022-12-29T13:18:02;7.53;;;4.80;;
16436;SDS011;8328;52.206;21.006;2022-12-29T13:28:57;6.73;;;4.40;;
16436;SDS011;8328;52.206;21.006;2022-12-29T13:31:38;8.23;;;5.13;;
16436;SDS011;8328;52.206;21.006;2022-12-29T13:37:02;14.43;;;5.23;;
16436;SDS011;8328;52.206;21.006;2022-12-29T13:39:40;11.53;;;4.70;;
16436;SDS011;8328;52.206;21.006;2022-12-29T13:42:19;12.57;;;7.97;;
16436;SDS011;8328;52.206;21.006;2022-12-29T13:44:48;12.83;;;7.30;;
16436;SDS011;8328;52.206;21.006;2022-12-29T13:49:58;8.07;;;4.73;;
16436;SDS011;8328;52.206;21.006;2022-12-29T13:52:29;8.07;;;5.23;;
16436;SDS011;8328;52.206;21.006;2022-12-29T13:55:18;6.83;;;4.90;;
16436;SDS011;8328;52.206;21.006;2022-12-29T14:00:47;10.90;;;6.03;;
16436;SDS011;8328;52.206;21.006;2022-12-29T14:06:29;8.47;;;5.17;;
16436;SDS011;8328;52.206;21.006;2022-12-29T14:09:03;10.30;;;5.30;;
16436;SDS011;8328;52.206;21.006;2022-12-29T14:11:36;8.37;;;5.40;;
16436;SDS011;8328;52.206;21.006;2022-12-29T14:17:11;9.47;;;5.30;;
16436;SDS011;8328;52.206;21.006;2022-12-29T14:19:39;10.70;;;5.77;;
16436;SDS011;8328;52.206;21.006;2022-12-29T14:22:08;7.07;;;4.90;;
16436;SDS011;8328;52.206;21.006;2022-12-29T14:24:43;7.30;;;4.60;;
16436;SDS011;8328;52.206;21.006;2022-12-29T14:42:48;11.03;;;5.30;;
16436;SDS011;8328;52.206;21.006;2022-12-29T14:47:43;10.43;;;5.43;;
16436;SDS011;8328;52.206;21.006;2022-12-29T14:58:02;8.07;;;5.37;;
16436;SDS011;8328;52.206;21.006;2022-12-29T15:00:32;8.40;;;5.57;;
16436;SDS011;8328;52.206;21.006;2022-12-29T15:05:51;8.83;;;5.50;;
16436;SDS011;8328;52.206;21.006;2022-12-29T15:08:20;10.17;;;5.33;;
16436;SDS011;8328;52.206;21.006;2022-12-29T15:13:24;6.90;;;5.23;;
16436;SDS011;8328;52.206;21.006;2022-12-29T15:15:58;7.03;;;5.17;;
16436;SDS011;8328;52.206;21.006;2022-12-29T15:18:30;7.40;;;4.87;;
16436;SDS011;8328;52.206;21.006;2022-12-29T15:21:01;10.03;;;5.90;;
16436;SDS011;8328;52.206;21.006;2022-12-29T15:23:32;8.37;;;5.10;;
16436;SDS011;8328;52.206;21.006;2022-12-29T15:26:06;7.73;;;5.33;;
16436;SDS011;8328;52.206;21.006;2022-12-29T15:28:40;7.40;;;5.07;;
16436;SDS011;8328;52.206;21.006;2022-12-29T15:31:12;11.13;;;6.07;;
16436;SDS011;8328;52.206;21.006;2022-12-29T15:33:42;8.10;;;5.77;;
16436;SDS011;8328;52.206;21.006;2022-12-29T15:36:17;10.70;;;5.67;;
16436;SDS011;8328;52.206;21.006;2022-12-29T15:38:51;9.93;;;5.73;;
16436;SDS011;8328;52.206;21.006;2022-12-29T15:46:24;9.50;;;5.43;;
16436;SDS011;8328;52.206;21.006;2022-12-29T15:48:51;8.77;;;5.10;;
16436;SDS011;8328;52.206;21.006;2022-12-29T15:51:22;9.03;;;5.70;;
16436;SDS011;8328;52.206;21.006;2022-12-29T15:53:58;8.03;;;5.50;;
16436;SDS011;8328;52.206;21.006;2022-12-29T15:56:25;9.97;;;6.60;;
16436;SDS011;8328;52.206;21.006;2022-12-29T15:58:54;9.97;;;5.50;;
16436;SDS011;8328;52.206;21.006;2022-12-29T16:01:25;10.13;;;6.20;;
16436;SDS011;8328;52.206;21.006;2022-12-29T16:04:02;11.13;;;7.03;;
16436;SDS011;8328;52.206;21.006;2022-12-29T16:09:35;10.27;;;5.00;;
16436;SDS011;8328;52.206;21.006;2022-12-29T16:12:02;7.50;;;5.03;;
16436;SDS011;8328;52.206;21.006;2022-12-29T16:14:43;8.20;;;5.50;;
16436;SDS011;8328;52.206;21.006;2022-12-29T16:17:23;7.77;;;5.50;;
16436;SDS011;8328;52.206;21.006;2022-12-29T16:19:56;9.10;;;4.97;;
16436;SDS011;8328;52.206;21.006;2022-12-29T16:22:32;7.67;;;4.93;;
16436;SDS011;8328;52.206;21.006;2022-12-29T16:25:19;8.17;;;5.10;;
16436;SDS011;8328;52.206;21.006;2022-12-29T16:27:54;8.17;;;5.70;;
16436;SDS011;8328;52.206;21.006;2022-12-29T16:30:21;8.20;;;5.40;;
16436;SDS011;8328;52.206;21.006;2022-12-29T16:32:54;10.53;;;5.80;;
16436;SDS011;8328;52.206;21.006;2022-12-29T16:37:49;9.57;;;6.40;;
16436;SDS011;8328;52.206;21.006;2022-12-29T16:40:38;9.10;;;5.77;;
16436;SDS011;8328;52.206;21.006;2022-12-29T16:43:22;9.77;;;6.00;;
16436;SDS011;8328;52.206;21.006;2022-12-29T16:50:46;10.33;;;6.30;;
16436;SDS011;8328;52.206;21.006;2022-12-29T16:53:26;9.20;;;5.67;;
16436;SDS011;8328;52.206;21.006;2022-12-29T16:55:56;8.17;;;5.43;;
16436;SDS011;8328;52.206;21.006;2022-12-29T16:58:25;8.67;;;5.03;;
16436;SDS011;8328;52.206;21.006;2022-12-29T17:01:00;9.20;;;5.67;;
16436;SDS011;8328;52.206;21.006;2022-12-29T17:03:35;10.87;;;6.60;;
16436;SDS011;8328;52.206;21.006;2022-12-29T17:06:09;8.33;;;5.70;;
16436;SDS011;8328;52.206;21.006;2022-12-29T17:08:43;9.23;;;5.67;;
16436;SDS011;8328;52.206;21.006;2022-12-29T17:17:05;9.00;;;5.53;;
16436;SDS011;8328;52.206;21.006;2022-12-29T17:19:55;8.87;;;5.50;;
16436;SDS011;8328;52.206;21.006;2022-12-29T17:22:26;10.30;;;5.63;;
16436;SDS011;8328;52.206;21.006;2022-12-29T17:24:53;10.63;;;5.77;;
16436;SDS011;8328;52.206;21.006;2022-12-29T17:27:21;9.67;;;5.87;;
16436;SDS011;8328;52.206;21.006;2022-12-29T17:30:02;9.33;;;5.73;;
16436;SDS011;8328;52.206;21.006;2022-12-29T17:32:34;9.07;;;5.93;;
16436;SDS011;8328;52.206;21.006;2022-12-29T17:35:00;9.00;;;5.77;;
16436;SDS011;8328;52.206;21.006;2022-12-29T17:37:44;8.80;;;5.60;;
16436;SDS011;8328;52.206;21.006;2022-12-29T17:40:14;8.57;;;5.53;;
16436;SDS011;8328;52.206;21.006;2022-12-29T17:42:45;10.23;;;5.80;;
16436;SDS011;8328;52.206;21.006;2022-12-29T17:45:17;9.03;;;6.07;;
16436;SDS011;8328;52.206;21.006;2022-12-29T17:47:45;10.07;;;6.30;;
16436;SDS011;8328;52.206;21.006;2022-12-29T17:50:12;11.30;;;6.50;;
16436;SDS011;8328;52.206;21.006;2022-12-29T17:52:40;9.47;;;5.90;;
16436;SDS011;8328;52.206;21.006;2022-12-29T17:55:08;9.77;;;6.00;;
16436;SDS011;8328;52.206;21.006;2022-12-29T17:57:44;9.83;;;6.07;;
16436;SDS011;8328;52.206;21.006;2022-12-29T18:00:17;10.47;;;6.90;;